Date,TemperatureHighF,TemperatureAvgF,TemperatureLowF,DewpointHighF,DewpointAvgF,DewpointLowF,HumidityHigh,HumidityAvg,HumidityLow,PressureMaxIn,PressureMinIn,WindSpeedMaxMPH,WindSpeedAvgMPH,GustSpeedMaxMPH,PrecipitationSumIn
2013-4-1,81.1,71.1,63.7,64.5,60.6,57.0,80,70,53,29.92,29.83,7,1,16,0.10
2013-4-2,85.6,71.4,61.3,61.3,58.3,55.1,83,65,41,29.88,29.78,9,0,10,0.00
2013-4-3,67.8,65.8,63.8,62.8,60.2,57.9,86,82,73,30.09,29.87,6,1,13,2.32
2013-4-4,69.6,64.7,61.3,63.6,59.7,57.0,88,84,75,30.25,30.09,8,2,21,0.97
2013-4-5,78.6,68.7,61.9,64.1,58.9,56.4,87,73,52,30.28,30.19,6,1,12,0.00
2013-4-6,76.4,67.3,62.2,63.2,59.4,56.7,84,76,60,30.22,30.08,6,0,8,0.04
2013-4-7,80.2,67.1,57.9,64.4,58.0,52.8,85,73,55,30.12,30.01,6,0,8,0.00
2013-4-8,79.3,67.9,57.7,63.6,57.7,51.9,85,71,56,30.14,30.05,5,0,10,0.00
2013-4-9,77.3,66.4,59.9,64.2,59.0,54.2,84,77,61,30.17,30.07,6,1,13,0.30
2013-4-10,80.4,68.2,58.1,63.8,58.7,53.9,89,73,54,30.13,30.00,3,0,8,0.00
2013-4-11,81.8,69.5,58.2,62.7,57.8,52.0,83,68,46,30.09,30.01,3,0,8,0.00
2013-4-12,80.4,70.9,60.6,64.9,59.4,54.4,83,68,53,30.16,30.04,5,0,8,0.00
2013-4-13,80.4,69.8,59.5,63.8,59.2,53.2,82,70,55,30.03,29.84,5,1,13,0.00
2013-4-14,85.8,71.8,60.4,64.9,59.8,53.9,83,67,46,29.84,29.71,2,0,6,0.00
2013-4-15,86.4,72.5,62.2,63.6,59.8,55.6,81,66,46,29.71,29.59,3,0,12,0.00
2013-4-16,74.8,68.4,65.1,64.0,61.0,59.4,84,77,68,29.83,29.67,7,2,23,0.14
2013-4-17,78.6,68.7,60.6,64.0,59.5,55.1,83,73,59,29.87,29.77,7,1,12,0.00
2013-4-18,81.5,70.8,61.0,63.1,59.7,55.1,83,69,52,29.82,29.72,7,1,13,0.00
2013-4-19,73.8,66.2,61.4,56.2,50.4,42.0,78,58,43,29.82,29.72,16,2,17,0.00
2013-4-20,62.2,59.5,58.1,57.7,51.9,41.0,86,77,50,29.85,29.70,8,2,14,2.32
2013-4-21,75.5,62.9,54.2,56.7,52.9,48.8,83,71,51,29.87,29.74,6,1,10,0.00
2013-4-22,79.5,66.3,58.6,58.9,54.5,52.3,83,68,44,29.75,29.60,3,0,8,0.00
2013-4-23,79.9,66.3,54.7,54.3,51.3,46.5,74,60,40,29.86,29.72,3,0,8,0.00
2013-4-24,78.5,65.7,54.5,54.3,50.8,46.7,75,60,38,29.97,29.84,3,0,9,0.00
2013-4-25,76.6,64.6,55.0,55.7,50.7,47.3,78,62,41,30.05,29.94,5,0,8,0.00
2013-4-26,80.4,66.1,53.8,54.9,50.1,43.5,73,58,40,30.10,29.96,2,0,6,0.00
2013-4-27,80.9,67.6,56.5,57.7,52.9,47.2,72,61,42,30.06,29.91,3,0,9,0.00
2013-4-28,84.9,70.3,58.8,56.0,51.5,46.5,75,54,33,29.99,29.87,3,0,8,0.00
2013-4-29,85.1,70.2,59.4,62.9,53.3,44.6,76,56,35,30.07,29.94,7,0,10,0.00
2013-4-30,79.7,71.0,66.7,67.8,63.5,61.1,85,78,65,30.13,30.02,8,2,15,0.00